Time;durP1;ratioP1;P1;durP2;ratioP2;P2;SDS_P1;SDS_P2;PMS_P1;PMS_P2;Temp;Humidity;BMP_temperature;BMP_pressure;BME280_temperature;BME280_humidity;BME280_pressure;Samples;Min_cycle;Max_cycle;Signal;HPM_P1;HPM_P2
2023/05/22 00:00:17;;;;;;;0.50;0.50;;;;;;;;;;5017367;28;20323;-81
2023/05/22 00:02:43;;;;;;;0.53;0.53;;;;;;;;;;5020670;28;20188;-81
2023/05/22 00:05:10;;;;;;;0.50;0.50;;;;;;;;;;5020855;28;20663;-81
2023/05/22 00:07:36;;;;;;;0.50;0.50;;;;;;;;;;5020862;28;20185;-81
2023/05/22 00:10:02;;;;;;;0.50;0.50;;;;;;;;;;5021165;28;20200;-81
2023/05/22 00:12:28;;;;;;;0.40;0.40;;;;;;;;;;5020991;28;20180;-81
2023/05/22 00:14:54;;;;;;;0.50;0.50;;;;;;;;;;5021378;28;20180;-81
2023/05/22 00:17:20;;;;;;;0.70;0.70;;;;;;;;;;5021059;28;20183;-80
2023/05/22 00:19:46;;;;;;;0.47;0.47;;;;;;;;;;5020223;28;20200;-82
2023/05/22 00:22:12;;;;;;;0.50;0.50;;;;;;;;;;5020787;28;20675;-81
2023/05/22 00:24:38;;;;;;;0.50;0.50;;;;;;;;;;5021448;28;20258;-81
2023/05/22 00:27:05;;;;;;;0.60;0.60;;;;;;;;;;5018429;28;20200;-82
2023/05/22 00:29:31;;;;;;;0.43;0.43;;;;;;;;;;5018456;28;20584;-82
2023/05/22 00:31:57;;;;;;;0.30;0.30;;;;;;;;;;5018630;28;20191;-81
2023/05/22 00:34:22;;;;;;;0.40;0.40;;;;;;;;;;5019912;28;20187;-81
2023/05/22 00:36:48;;;;;;;0.50;0.50;;;;;;;;;;5019705;28;20534;-82
2023/05/22 00:39:15;;;;;;;0.60;0.60;;;;;;;;;;5018530;28;20204;-82
2023/05/22 00:41:41;;;;;;;0.47;0.47;;;;;;;;;;5020111;28;20274;-81
2023/05/22 00:44:07;;;;;;;0.40;0.40;;;;;;;;;;5020255;28;20265;-81
2023/05/22 00:46:33;;;;;;;0.40;0.40;;;;;;;;;;5019869;28;20165;-82
2023/05/22 00:48:59;;;;;;;0.40;0.40;;;;;;;;;;5019943;28;20173;-82
2023/05/22 00:51:25;;;;;;;0.43;0.43;;;;;;;;;;5017595;28;20196;-81
2023/05/22 00:53:52;;;;;;;0.50;0.50;;;;;;;;;;5019313;28;20187;-81
2023/05/22 00:56:20;;;;;;;0.50;0.50;;;;;;;;;;5019905;28;20183;-81
2023/05/22 00:58:46;;;;;;;0.50;0.50;;;;;;;;;;5019473;28;20184;-81
2023/05/22 01:01:12;;;;;;;0.50;0.50;;;;;;;;;;5018925;28;20231;-82
2023/05/22 01:03:43;;;;;;;0.53;0.53;;;;;;;;;;5020716;28;20268;-82
2023/05/22 01:06:13;;;;;;;0.50;0.50;;;;;;;;;;5020403;28;20188;-82
2023/05/22 01:08:40;;;;;;;0.50;0.50;;;;;;;;;;5019550;28;20197;-82
2023/05/22 01:11:17;;;;;;;0.50;0.50;;;;;;;;;;5022195;28;20299;-82
2023/05/22 01:14:00;;;;;;;0.60;0.60;;;;;;;;;;5023352;28;20603;-82
2023/05/22 01:16:29;;;;;;;0.50;0.50;;;;;;;;;;5023029;28;20221;-81
2023/05/22 01:18:55;;;;;;;0.50;0.50;;;;;;;;;;5023355;28;20583;-81
2023/05/22 01:21:28;;;;;;;0.43;0.43;;;;;;;;;;5023475;28;20224;-82
2023/05/22 01:24:05;;;;;;;0.40;0.40;;;;;;;;;;5023861;28;20181;-82
2023/05/22 01:27:03;;;;;;;0.40;0.40;;;;;;;;;;5024017;28;20187;-81
2023/05/22 01:30:02;;;;;;;0.50;0.50;;;;;;;;;;4979043;28;20215;-81
2023/05/22 01:32:29;;;;;;;0.40;0.40;;;;;;;;;;4980673;28;20180;-82
2023/05/22 01:34:56;;;;;;;0.33;0.33;;;;;;;;;;5024129;28;20183;-82
2023/05/22 01:37:22;;;;;;;0.40;0.40;;;;;;;;;;5023715;28;20259;-83
2023/05/22 01:39:50;;;;;;;0.50;0.50;;;;;;;;;;5023191;28;20201;-82
2023/05/22 01:42:16;;;;;;;0.40;0.40;;;;;;;;;;5024798;28;20204;-81
2023/05/22 01:44:42;;;;;;;0.40;0.40;;;;;;;;;;5024956;28;20176;-82
2023/05/22 01:47:09;;;;;;;0.50;0.50;;;;;;;;;;5025840;28;20518;-83
2023/05/22 01:49:35;;;;;;;0.40;0.40;;;;;;;;;;5024602;28;20686;-82
2023/05/22 01:52:13;;;;;;;0.50;0.50;;;;;;;;;;5025329;28;20172;-81
2023/05/22 01:54:45;;;;;;;0.50;0.50;;;;;;;;;;5024833;28;20510;-82
2023/05/22 01:57:11;;;;;;;0.40;0.40;;;;;;;;;;5028306;28;20172;-82
2023/05/22 01:59:48;;;;;;;0.40;0.40;;;;;;;;;;5028098;28;20208;-81
2023/05/22 02:02:19;;;;;;;0.50;0.50;;;;;;;;;;5027939;28;20192;-81
2023/05/22 02:04:48;;;;;;;0.50;0.50;;;;;;;;;;5024809;28;20169;-82
2023/05/22 02:07:15;;;;;;;0.40;0.40;;;;;;;;;;5024016;28;20625;-82
2023/05/22 02:09:41;;;;;;;0.60;0.60;;;;;;;;;;5023392;28;20212;-82
2023/05/22 02:12:07;;;;;;;0.60;0.60;;;;;;;;;;5024642;28;20181;-82
2023/05/22 02:14:35;;;;;;;0.63;0.63;;;;;;;;;;5025232;28;20187;-81
2023/05/22 02:17:02;;;;;;;0.50;0.50;;;;;;;;;;5025773;28;20188;-81
2023/05/22 02:19:28;;;;;;;0.50;0.50;;;;;;;;;;5024333;28;20200;-82
2023/05/22 02:21:54;;;;;;;0.40;0.40;;;;;;;;;;5052502;22;20208;-78
2023/05/22 02:24:22;;;;;;;0.57;0.57;;;;;;;;;;5038885;28;20175;-79
2023/05/22 02:26:48;;;;;;;0.40;0.40;;;;;;;;;;5016476;28;20180;-81
2023/05/22 02:29:14;;;;;;;0.50;0.50;;;;;;;;;;5014158;28;20243;-82
2023/05/22 02:31:40;;;;;;;0.53;0.53;;;;;;;;;;5014247;28;20172;-83
2023/05/22 02:34:06;;;;;;;0.50;0.50;;;;;;;;;;5015643;28;20180;-82
2023/05/22 02:36:32;;;;;;;0.43;0.43;;;;;;;;;;5015321;28;20651;-80
2023/05/22 02:39:01;;;;;;;0.40;0.40;;;;;;;;;;5017640;28;20176;-82
2023/05/22 02:41:27;;;;;;;0.47;0.47;;;;;;;;;;5017380;28;20586;-81
2023/05/22 02:43:53;;;;;;;0.50;0.50;;;;;;;;;;5017541;28;20173;-81
2023/05/22 02:46:19;;;;;;;0.60;0.60;;;;;;;;;;5017512;28;20227;-81
2023/05/22 02:48:45;;;;;;;0.50;0.50;;;;;;;;;;5016901;28;20204;-82
2023/05/22 02:51:11;;;;;;;0.53;0.53;;;;;;;;;;5016583;28;20231;-81
2023/05/22 02:53:38;;;;;;;0.50;0.50;;;;;;;;;;5016549;28;20172;-80
2023/05/22 02:56:05;;;;;;;0.50;0.50;;;;;;;;;;4999453;28;20267;-81
2023/05/22 02:58:31;;;;;;;0.40;0.40;;;;;;;;;;5016680;28;20598;-80
2023/05/22 03:00:57;;;;;;;0.40;0.40;;;;;;;;;;5016477;28;20239;-81
2023/05/22 03:03:24;;;;;;;0.50;0.50;;;;;;;;;;5016872;28;20244;-80
2023/05/22 03:05:53;;;;;;;0.50;0.50;;;;;;;;;;5016763;28;20196;-81
2023/05/22 03:08:19;;;;;;;0.50;0.50;;;;;;;;;;5017281;28;20219;-81
2023/05/22 03:10:45;;;;;;;0.50;0.50;;;;;;;;;;5015901;28;20246;-81
2023/05/22 03:13:11;;;;;;;0.50;0.50;;;;;;;;;;5016072;28;20243;-81
2023/05/22 03:15:37;;;;;;;0.50;0.50;;;;;;;;;;5016396;28;20549;-81
2023/05/22 03:18:03;;;;;;;0.50;0.50;;;;;;;;;;5015839;28;20177;-82
2023/05/22 03:20:30;;;;;;;0.50;0.50;;;;;;;;;;5015359;28;20209;-82
2023/05/22 03:22:56;;;;;;;0.40;0.40;;;;;;;;;;5015784;28;20196;-81
2023/05/22 03:25:22;;;;;;;0.50;0.50;;;;;;;;;;5016177;28;20246;-81
2023/05/22 03:27:48;;;;;;;0.50;0.50;;;;;;;;;;5015766;28;20590;-81
2023/05/22 03:30:14;;;;;;;0.50;0.50;;;;;;;;;;5014824;28;20208;-81
2023/05/22 03:32:40;;;;;;;0.50;0.50;;;;;;;;;;5015117;28;20172;-83
2023/05/22 03:35:06;;;;;;;0.60;0.60;;;;;;;;;;5015296;28;20252;-81
2023/05/22 03:37:32;;;;;;;0.50;0.50;;;;;;;;;;5015100;28;20187;-82
2023/05/22 03:39:58;;;;;;;0.50;0.50;;;;;;;;;;5014465;28;20295;-83
2023/05/22 03:42:24;;;;;;;0.50;0.50;;;;;;;;;;5015450;28;20184;-82
2023/05/22 03:44:50;;;;;;;0.50;0.50;;;;;;;;;;5015902;28;20227;-81
2023/05/22 03:47:16;;;;;;;0.50;0.50;;;;;;;;;;5016673;28;20188;-80
2023/05/22 03:49:42;;;;;;;0.40;0.40;;;;;;;;;;5015965;28;20231;-84
2023/05/22 03:52:11;;;;;;;0.60;0.60;;;;;;;;;;5016851;28;20202;-80
2023/05/22 03:54:37;;;;;;;0.43;0.43;;;;;;;;;;4998702;28;20172;-81
2023/05/22 03:57:03;;;;;;;0.40;0.40;;;;;;;;;;5016118;28;20187;-82
2023/05/22 03:59:29;;;;;;;0.43;0.43;;;;;;;;;;5015050;28;20694;-82
2023/05/22 04:01:56;;;;;;;0.50;0.50;;;;;;;;;;5015441;28;20223;-82
2023/05/22 04:04:25;;;;;;;0.40;0.40;;;;;;;;;;5016010;28;20594;-83
2023/05/22 04:06:51;;;;;;;0.50;0.50;;;;;;;;;;5015801;28;20184;-83
2023/05/22 04:09:17;;;;;;;0.40;0.40;;;;;;;;;;5015331;28;20180;-82
2023/05/22 04:11:45;;;;;;;0.60;0.60;;;;;;;;;;5015910;28;20177;-82
2023/05/22 04:14:11;;;;;;;0.60;0.60;;;;;;;;;;5016140;28;20187;-84
2023/05/22 04:16:37;;;;;;;0.50;0.50;;;;;;;;;;5016196;28;20181;-85
2023/05/22 04:19:03;;;;;;;0.50;0.50;;;;;;;;;;5016829;28;20187;-83
2023/05/22 04:21:32;;;;;;;0.50;0.50;;;;;;;;;;5015520;28;20223;-82
2023/05/22 04:23:58;;;;;;;0.40;0.40;;;;;;;;;;5016139;28;20184;-85
2023/05/22 04:26:24;;;;;;;0.50;0.50;;;;;;;;;;5007890;28;20670;-82
2023/05/22 04:28:50;;;;;;;0.50;0.50;;;;;;;;;;5011761;28;20176;-84
2023/05/22 04:31:17;;;;;;;0.60;0.60;;;;;;;;;;5003173;28;20240;-85
2023/05/22 04:33:47;;;;;;;0.50;0.50;;;;;;;;;;5016143;28;20212;-84
2023/05/22 04:36:13;;;;;;;0.50;0.50;;;;;;;;;;5016065;28;20181;-83
2023/05/22 04:38:40;;;;;;;0.50;0.50;;;;;;;;;;5015767;28;20202;-83
2023/05/22 04:41:09;;;;;;;0.50;0.50;;;;;;;;;;5015842;28;20209;-85
2023/05/22 04:43:37;;;;;;;0.43;0.43;;;;;;;;;;5017704;28;20176;-82
2023/05/22 04:46:03;;;;;;;0.50;0.50;;;;;;;;;;5019944;28;20185;-82
2023/05/22 04:48:29;;;;;;;0.47;0.47;;;;;;;;;;5019859;28;20173;-82
2023/05/22 04:50:56;;;;;;;0.40;0.40;;;;;;;;;;5019249;28;20200;-84
2023/05/22 04:53:22;;;;;;;0.50;0.50;;;;;;;;;;5019488;28;20196;-82
2023/05/22 04:55:48;;;;;;;0.57;0.57;;;;;;;;;;5019661;28;20547;-82
2023/05/22 04:58:14;;;;;;;0.50;0.50;;;;;;;;;;5019907;28;20593;-84
2023/05/22 05:00:40;;;;;;;0.50;0.50;;;;;;;;;;5019655;28;20682;-83
2023/05/22 05:03:06;;;;;;;0.47;0.47;;;;;;;;;;5019465;28;20180;-85
2023/05/22 05:05:32;;;;;;;0.47;0.47;;;;;;;;;;5019341;28;20234;-83
2023/05/22 05:07:58;;;;;;;0.60;0.60;;;;;;;;;;5019838;28;20176;-83
2023/05/22 05:10:24;;;;;;;0.40;0.40;;;;;;;;;;5019143;28;20283;-84
2023/05/22 05:12:50;;;;;;;0.47;0.47;;;;;;;;;;5019665;28;20180;-84
2023/05/22 05:15:16;;;;;;;0.30;0.30;;;;;;;;;;5020256;28;20198;-83
2023/05/22 05:17:42;;;;;;;0.50;0.50;;;;;;;;;;5020104;28;20191;-83
2023/05/22 05:20:09;;;;;;;0.40;0.40;;;;;;;;;;5020787;28;20295;-82
2023/05/22 05:22:36;;;;;;;0.40;0.40;;;;;;;;;;5019981;28;20271;-83
2023/05/22 05:25:03;;;;;;;0.40;0.40;;;;;;;;;;5020082;28;20184;-84
2023/05/22 05:27:29;;;;;;;0.50;0.50;;;;;;;;;;5027701;28;20221;-82
2023/05/22 05:29:55;;;;;;;0.40;0.40;;;;;;;;;;5033425;28;20201;-83
2023/05/22 05:32:21;;;;;;;0.40;0.40;;;;;;;;;;5035145;28;20177;-85
2023/05/22 05:34:47;;;;;;;0.40;0.40;;;;;;;;;;5022035;28;20542;-82
2023/05/22 05:37:13;;;;;;;0.30;0.30;;;;;;;;;;5016984;28;20177;-83
2023/05/22 05:39:39;;;;;;;0.43;0.43;;;;;;;;;;5019375;28;20205;-82
2023/05/22 05:42:05;;;;;;;0.30;0.30;;;;;;;;;;5021126;28;20223;-84
2023/05/22 05:44:31;;;;;;;0.30;0.30;;;;;;;;;;5033406;28;20184;-84
2023/05/22 05:46:57;;;;;;;0.40;0.40;;;;;;;;;;5034980;28;20211;-85
2023/05/22 05:49:23;;;;;;;0.40;0.40;;;;;;;;;;5034904;28;20200;-84
2023/05/22 05:51:49;;;;;;;0.30;0.30;;;;;;;;;;5035333;28;20175;-84
2023/05/22 05:54:15;;;;;;;0.37;0.37;;;;;;;;;;5035633;28;20183;-83
2023/05/22 05:56:41;;;;;;;0.30;0.30;;;;;;;;;;5022877;28;20180;-85
2023/05/22 05:59:08;;;;;;;0.30;0.30;;;;;;;;;;5018978;28;20264;-85
2023/05/22 06:01:34;;;;;;;0.40;0.40;;;;;;;;;;5018846;28;20223;-84
2023/05/22 06:04:02;;;;;;;0.50;0.50;;;;;;;;;;5019652;28;20565;-85
2023/05/22 06:06:34;;;;;;;0.40;0.40;;;;;;;;;;5018973;28;20702;-84
2023/05/22 06:09:01;;;;;;;0.30;0.30;;;;;;;;;;5018799;28;20553;-85
2023/05/22 06:11:27;;;;;;;0.50;0.50;;;;;;;;;;5018157;28;20185;-85
2023/05/22 06:13:53;;;;;;;0.30;0.30;;;;;;;;;;5019270;28;20177;-85
2023/05/22 06:16:19;;;;;;;0.40;0.40;;;;;;;;;;5018819;28;20200;-85
2023/05/22 06:18:46;;;;;;;0.40;0.40;;;;;;;;;;5019096;28;20177;-85
2023/05/22 06:21:12;;;;;;;0.43;0.43;;;;;;;;;;5038437;28;20216;-85
2023/05/22 06:23:37;;;;;;;0.40;0.40;;;;;;;;;;5038646;28;20184;-86
2023/05/22 06:26:04;;;;;;;0.40;0.40;;;;;;;;;;5038430;28;20171;-84
2023/05/22 06:28:30;;;;;;;0.50;0.50;;;;;;;;;;5038323;28;20189;-86
2023/05/22 06:30:56;;;;;;;0.30;0.30;;;;;;;;;;5036693;28;20219;-82
2023/05/22 06:33:22;;;;;;;0.50;0.50;;;;;;;;;;5020669;28;20180;-84
2023/05/22 06:35:48;;;;;;;0.50;0.50;;;;;;;;;;5019339;28;20180;-85
2023/05/22 06:38:14;;;;;;;0.40;0.40;;;;;;;;;;5020112;28;20184;-84
2023/05/22 06:40:40;;;;;;;0.40;0.40;;;;;;;;;;5018811;28;20670;-84
2023/05/22 06:43:06;;;;;;;0.40;0.40;;;;;;;;;;5018872;28;20268;-81
2023/05/22 06:45:32;;;;;;;0.30;0.30;;;;;;;;;;5019081;28;20184;-82
2023/05/22 06:47:58;;;;;;;0.37;0.37;;;;;;;;;;5017881;28;20259;-84
2023/05/22 06:50:24;;;;;;;0.40;0.40;;;;;;;;;;5018731;28;20231;-82
2023/05/22 06:52:50;;;;;;;0.50;0.50;;;;;;;;;;5018961;28;20181;-86
2023/05/22 06:55:16;;;;;;;0.40;0.40;;;;;;;;;;5021419;28;20187;-87
2023/05/22 06:57:42;;;;;;;0.40;0.40;;;;;;;;;;5035348;28;20188;-86
2023/05/22 07:00:11;;;;;;;0.57;0.57;;;;;;;;;;5035102;28;20192;-87
2023/05/22 07:02:37;;;;;;;0.30;0.30;;;;;;;;;;5024487;28;20199;-85
2023/05/22 07:05:03;;;;;;;0.40;0.40;;;;;;;;;;5019612;28;20271;-83
2023/05/22 07:07:29;;;;;;;0.30;0.30;;;;;;;;;;5000806;28;20552;-86
2023/05/22 07:09:55;;;;;;;0.40;0.40;;;;;;;;;;5017897;28;20721;-84
2023/05/22 07:12:24;;;;;;;0.30;0.30;;;;;;;;;;5018063;28;20181;-83
2023/05/22 07:14:50;;;;;;;0.30;0.30;;;;;;;;;;5017458;28;20627;-83
2023/05/22 07:17:17;;;;;;;0.40;0.40;;;;;;;;;;5017742;28;20184;-83
2023/05/22 07:19:43;;;;;;;0.40;0.40;;;;;;;;;;5018386;28;20271;-85
2023/05/22 07:22:09;;;;;;;0.30;0.30;;;;;;;;;;5018036;28;20250;-82
2023/05/22 07:24:35;;;;;;;0.40;0.40;;;;;;;;;;5017155;28;20674;-83
2023/05/22 07:27:03;;;;;;;0.40;0.40;;;;;;;;;;5017066;28;20215;-83
2023/05/22 07:29:29;;;;;;;0.40;0.40;;;;;;;;;;5017032;28;20216;-84
2023/05/22 07:31:55;;;;;;;0.37;0.37;;;;;;;;;;5016977;28;20235;-86
2023/05/22 07:34:21;;;;;;;0.30;0.30;;;;;;;;;;5017475;28;20180;-84
2023/05/22 07:36:47;;;;;;;0.33;0.33;;;;;;;;;;5016884;28;20184;-85
2023/05/22 07:39:13;;;;;;;0.23;0.23;;;;;;;;;;5016883;28;20203;-85
2023/05/22 07:41:40;;;;;;;0.30;0.30;;;;;;;;;;5016457;28;20733;-83
2023/05/22 07:44:06;;;;;;;0.30;0.30;;;;;;;;;;5017132;28;20618;-85
2023/05/22 07:46:34;;;;;;;0.30;0.30;;;;;;;;;;5016463;28;20184;-83
2023/05/22 07:49:00;;;;;;;0.40;0.40;;;;;;;;;;5016720;28;20188;-84
2023/05/22 07:51:26;;;;;;;0.40;0.40;;;;;;;;;;5016273;28;20204;-85
2023/05/22 07:53:53;;;;;;;0.40;0.40;;;;;;;;;;5016831;28;20592;-84
2023/05/22 07:56:19;;;;;;;0.50;0.50;;;;;;;;;;5016335;28;20203;-87
2023/05/22 07:58:47;;;;;;;0.60;0.60;;;;;;;;;;5016094;28;20183;-83
2023/05/22 08:01:14;;;;;;;0.50;0.50;;;;;;;;;;5015555;28;20220;-86
2023/05/22 08:03:40;;;;;;;0.70;0.70;;;;;;;;;;5016672;28;20196;-87
2023/05/22 08:06:06;;;;;;;0.30;0.30;;;;;;;;;;5016377;28;20176;-86
2023/05/22 08:08:33;;;;;;;0.50;0.50;;;;;;;;;;5017022;28;20176;-85
2023/05/22 08:10:59;;;;;;;0.50;0.50;;;;;;;;;;5016140;28;20584;-85
2023/05/22 08:13:25;;;;;;;0.40;0.40;;;;;;;;;;5016445;28;20643;-83
2023/05/22 08:15:51;;;;;;;0.40;0.40;;;;;;;;;;5015671;28;20176;-83
2023/05/22 08:18:17;;;;;;;0.50;0.50;;;;;;;;;;5016675;28;20172;-86
2023/05/22 08:20:43;;;;;;;0.40;0.40;;;;;;;;;;5019439;28;20677;-86
2023/05/22 08:23:09;;;;;;;0.40;0.40;;;;;;;;;;5020371;28;20192;-85
2023/05/22 08:25:35;;;;;;;0.40;0.40;;;;;;;;;;5018380;28;20543;-85
2023/05/22 08:28:01;;;;;;;0.50;0.50;;;;;;;;;;5029668;28;20172;-84
2023/05/22 08:30:27;;;;;;;0.40;0.40;;;;;;;;;;5018989;28;20206;-86
2023/05/22 08:32:53;;;;;;;0.50;0.50;;;;;;;;;;5020216;28;20177;-83
2023/05/22 08:35:19;;;;;;;0.50;0.50;;;;;;;;;;5039880;28;20175;-87
2023/05/22 08:37:45;;;;;;;0.50;0.50;;;;;;;;;;5039292;28;20188;-86
2023/05/22 08:40:12;;;;;;;0.50;0.50;;;;;;;;;;5038364;28;20212;-85
2023/05/22 08:42:38;;;;;;;0.50;0.50;;;;;;;;;;5037976;28;20262;-85
2023/05/22 08:45:05;;;;;;;0.40;0.40;;;;;;;;;;5036929;28;20212;-85
2023/05/22 08:47:34;;;;;;;0.60;0.60;;;;;;;;;;5014637;28;20180;-87
2023/05/22 08:50:00;;;;;;;0.40;0.40;;;;;;;;;;5002399;28;20199;-85
2023/05/22 08:52:47;;;;;;;0.40;0.40;;;;;;;;;;5019353;28;20176;-85
2023/05/22 08:55:13;;;;;;;0.50;0.50;;;;;;;;;;5019167;28;20188;-85
2023/05/22 08:57:39;;;;;;;0.30;0.30;;;;;;;;;;5019522;28;20199;-86
2023/05/22 09:00:06;;;;;;;0.43;0.43;;;;;;;;;;5019998;28;20266;-83
2023/05/22 09:02:32;;;;;;;0.40;0.40;;;;;;;;;;5002011;28;20173;-85
2023/05/22 09:05:00;;;;;;;0.30;0.30;;;;;;;;;;5019159;28;20682;-84
2023/05/22 09:07:28;;;;;;;0.30;0.30;;;;;;;;;;5022167;28;20168;-84
2023/05/22 09:09:55;;;;;;;0.37;0.37;;;;;;;;;;5039106;28;20216;-86
2023/05/22 09:12:21;;;;;;;0.40;0.40;;;;;;;;;;5039441;28;20684;-85
2023/05/22 09:14:47;;;;;;;0.40;0.40;;;;;;;;;;5039931;28;20270;-85
2023/05/22 09:17:16;;;;;;;0.33;0.33;;;;;;;;;;5039150;28;20176;-86
2023/05/22 09:19:45;;;;;;;0.30;0.30;;;;;;;;;;5038591;28;20545;-86
2023/05/22 09:22:12;;;;;;;0.40;0.40;;;;;;;;;;5039772;28;20219;-85
2023/05/22 09:24:38;;;;;;;0.30;0.30;;;;;;;;;;5040375;28;20203;-84
2023/05/22 09:27:08;;;;;;;0.30;0.30;;;;;;;;;;5040397;28;20180;-84
2023/05/22 09:29:50;;;;;;;0.30;0.30;;;;;;;;;;5037296;28;20191;-85
2023/05/22 09:32:17;;;;;;;0.40;0.40;;;;;;;;;;5038476;28;20577;-83
2023/05/22 09:34:44;;;;;;;0.30;0.30;;;;;;;;;;5040436;28;20172;-84
2023/05/22 09:37:11;;;;;;;0.30;0.30;;;;;;;;;;5038827;28;20168;-84
2023/05/22 09:39:43;;;;;;;0.40;0.40;;;;;;;;;;5036934;28;20199;-82
2023/05/22 09:42:11;;;;;;;0.50;0.50;;;;;;;;;;5037519;28;20273;-82
2023/05/22 09:44:38;;;;;;;0.43;0.43;;;;;;;;;;5040756;28;20239;-84
2023/05/22 09:47:11;;;;;;;0.40;0.40;;;;;;;;;;5041066;28;20179;-85
2023/05/22 09:49:43;;;;;;;0.50;0.50;;;;;;;;;;5043876;28;20192;-84
2023/05/22 09:52:11;;;;;;;0.40;0.40;;;;;;;;;;5041159;28;20183;-85
2023/05/22 09:54:41;;;;;;;0.50;0.50;;;;;;;;;;5050050;28;20215;-83
2023/05/22 09:57:10;;;;;;;0.60;0.60;;;;;;;;;;5059010;28;20170;-81
2023/05/22 09:59:39;;;;;;;0.50;0.50;;;;;;;;;;5058550;28;20186;-81
2023/05/22 10:02:05;;;;;;;0.40;0.40;;;;;;;;;;5058084;28;20207;-82
2023/05/22 10:04:32;;;;;;;0.50;0.50;;;;;;;;;;5058352;28;20168;-81
2023/05/22 10:07:01;;;;;;;0.50;0.50;;;;;;;;;;5044708;28;20172;-83
2023/05/22 10:09:29;;;;;;;0.60;0.60;;;;;;;;;;5038037;28;20203;-85
2023/05/22 10:11:58;;;;;;;0.60;0.60;;;;;;;;;;5038284;28;20184;-84
2023/05/22 10:14:24;;;;;;;0.60;0.60;;;;;;;;;;5039026;28;20221;-84
2023/05/22 10:16:52;;;;;;;0.60;0.60;;;;;;;;;;5051289;28;20168;-83
2023/05/22 10:19:18;;;;;;;0.60;0.60;;;;;;;;;;5022907;28;20234;-83
2023/05/22 10:21:45;;;;;;;0.47;0.47;;;;;;;;;;5055568;28;20211;-82
2023/05/22 10:24:11;;;;;;;0.57;0.57;;;;;;;;;;5041917;28;20325;-85
2023/05/22 10:26:38;;;;;;;0.50;0.50;;;;;;;;;;5037163;28;20176;-84
2023/05/22 10:29:12;;;;;;;0.60;0.60;;;;;;;;;;5036132;28;20236;-83
2023/05/22 10:31:45;;;;;;;0.50;0.50;;;;;;;;;;5037320;28;20176;-88
2023/05/22 10:34:16;;;;;;;0.50;0.50;;;;;;;;;;5036727;28;20655;-84
2023/05/22 10:36:50;;;;;;;0.63;0.63;;;;;;;;;;5036772;28;20172;-84
2023/05/22 10:39:40;;;;;;;0.40;0.40;;;;;;;;;;5034989;28;20186;-84
2023/05/22 10:42:11;;;;;;;0.50;0.50;;;;;;;;;;5035065;28;20685;-85
2023/05/22 10:44:37;;;;;;;0.57;0.57;;;;;;;;;;5039331;28;20180;-85
2023/05/22 10:47:09;;;;;;;0.40;0.40;;;;;;;;;;5040680;28;20320;-84
2023/05/22 10:49:35;;;;;;;0.40;0.40;;;;;;;;;;5019126;28;20620;-84
2023/05/22 10:52:02;;;;;;;0.50;0.50;;;;;;;;;;5040439;28;20536;-83
2023/05/22 10:54:44;;;;;;;0.60;0.60;;;;;;;;;;5039559;28;20180;-84
2023/05/22 10:57:11;;;;;;;0.50;0.50;;;;;;;;;;5047851;28;20236;-82
2023/05/22 10:59:37;;;;;;;0.40;0.40;;;;;;;;;;5056640;28;20198;-81
2023/05/22 11:02:04;;;;;;;0.40;0.40;;;;;;;;;;5052500;28;20201;-81
2023/05/22 11:04:30;;;;;;;0.40;0.40;;;;;;;;;;5050177;28;20207;-82
2023/05/22 11:07:04;;;;;;;0.60;0.60;;;;;;;;;;5048286;28;20207;-84
2023/05/22 11:09:44;;;;;;;0.50;0.50;;;;;;;;;;5035043;28;20188;-84
2023/05/22 11:12:16;;;;;;;0.55;0.55;;;;;;;;;;5035489;28;20175;-83
2023/05/22 11:14:48;;;;;;;0.60;0.60;;;;;;;;;;5017733;28;20175;-84
2023/05/22 11:17:18;;;;;;;0.50;0.50;;;;;;;;;;5015732;28;20529;-85
2023/05/22 11:19:44;;;;;;;0.50;0.50;;;;;;;;;;5016333;28;20203;-85
2023/05/22 11:22:12;;;;;;;0.60;0.60;;;;;;;;;;5016322;28;20220;-84
2023/05/22 11:24:40;;;;;;;0.30;0.30;;;;;;;;;;5016353;28;20187;-85
2023/05/22 11:27:06;;;;;;;0.40;0.40;;;;;;;;;;5015821;28;20180;-85
2023/05/22 11:29:33;;;;;;;0.60;0.60;;;;;;;;;;5014397;28;20203;-85
2023/05/22 11:31:59;;;;;;;0.50;0.50;;;;;;;;;;5014941;28;20268;-84
2023/05/22 11:34:26;;;;;;;0.60;0.60;;;;;;;;;;5015173;28;20606;-84
2023/05/22 11:36:56;;;;;;;0.50;0.50;;;;;;;;;;5015796;28;20200;-84
2023/05/22 11:39:22;;;;;;;0.47;0.47;;;;;;;;;;5014851;28;20683;-84
2023/05/22 11:41:48;;;;;;;0.50;0.50;;;;;;;;;;5015893;28;20243;-84
2023/05/22 11:44:14;;;;;;;0.60;0.60;;;;;;;;;;5016705;28;20180;-84
2023/05/22 11:46:40;;;;;;;0.50;0.50;;;;;;;;;;5016162;28;20173;-83
2023/05/22 11:49:11;;;;;;;0.60;0.60;;;;;;;;;;5015689;28;20183;-84
2023/05/22 11:51:39;;;;;;;0.50;0.50;;;;;;;;;;5010395;28;20191;-83
2023/05/22 11:54:05;;;;;;;0.60;0.60;;;;;;;;;;5000704;28;20188;-84
2023/05/22 11:56:31;;;;;;;0.50;0.50;;;;;;;;;;4993557;28;20177;-84
2023/05/22 11:58:57;;;;;;;0.50;0.50;;;;;;;;;;5008737;28;20181;-82
2023/05/22 12:01:23;;;;;;;0.60;0.60;;;;;;;;;;5016888;28;20216;-82
2023/05/22 12:03:49;;;;;;;0.50;0.50;;;;;;;;;;5017422;28;20241;-81
2023/05/22 12:06:16;;;;;;;0.50;0.50;;;;;;;;;;5013069;28;20200;-85
2023/05/22 12:08:43;;;;;;;0.40;0.40;;;;;;;;;;4996627;28;20173;-84
2023/05/22 12:11:10;;;;;;;0.60;0.60;;;;;;;;;;4997603;28;20548;-83
2023/05/22 12:13:37;;;;;;;0.50;0.50;;;;;;;;;;4998041;28;20698;-84
2023/05/22 12:16:16;;;;;;;0.50;0.50;;;;;;;;;;4997712;28;20261;-85
2023/05/22 12:18:42;;;;;;;0.40;0.40;;;;;;;;;;5029181;28;20179;-85
2023/05/22 12:21:10;;;;;;;0.50;0.50;;;;;;;;;;5034978;28;20226;-86
2023/05/22 12:23:36;;;;;;;0.50;0.50;;;;;;;;;;5035599;28;20282;-85
2023/05/22 12:26:03;;;;;;;0.50;0.50;;;;;;;;;;5017943;28;20183;-85
2023/05/22 12:28:32;;;;;;;0.70;0.70;;;;;;;;;;5035121;28;20180;-87
2023/05/22 12:30:58;;;;;;;0.60;0.60;;;;;;;;;;5034423;28;20254;-86
2023/05/22 12:33:27;;;;;;;0.60;0.60;;;;;;;;;;5035244;28;20184;-85
2023/05/22 12:35:57;;;;;;;0.70;0.70;;;;;;;;;;5037546;28;20180;-86
2023/05/22 12:38:23;;;;;;;0.50;0.50;;;;;;;;;;5035266;28;20191;-85
2023/05/22 12:40:50;;;;;;;0.60;0.60;;;;;;;;;;5033164;28;20216;-86
2023/05/22 12:43:16;;;;;;;0.55;0.55;;;;;;;;;;5033473;28;20183;-84
2023/05/22 12:45:42;;;;;;;0.60;0.60;;;;;;;;;;5034079;28;20262;-87
2023/05/22 12:48:08;;;;;;;0.52;0.52;;;;;;;;;;5033159;28;20253;-83
2023/05/22 12:50:34;;;;;;;0.60;0.60;;;;;;;;;;5032904;28;20574;-86
2023/05/22 12:53:01;;;;;;;0.60;0.60;;;;;;;;;;5033852;28;20175;-86
2023/05/22 12:55:27;;;;;;;0.60;0.60;;;;;;;;;;5033238;28;20361;-84
2023/05/22 12:57:53;;;;;;;0.65;0.65;;;;;;;;;;5032931;28;20180;-83
2023/05/22 13:00:19;;;;;;;0.55;0.55;;;;;;;;;;5004765;28;20180;-84
2023/05/22 13:02:45;;;;;;;0.33;0.33;;;;;;;;;;5002952;28;20184;-85
2023/05/22 13:05:11;;;;;;;0.50;0.50;;;;;;;;;;5007013;28;20264;-85
2023/05/22 13:07:37;;;;;;;0.33;0.33;;;;;;;;;;5008249;28;20208;-85
2023/05/22 13:10:03;;;;;;;0.60;0.60;;;;;;;;;;5008350;28;20196;-85
2023/05/22 13:12:31;;;;;;;0.50;0.50;;;;;;;;;;5018117;28;20211;-85
2023/05/22 13:14:57;;;;;;;0.60;0.60;;;;;;;;;;5017641;28;20177;-86
2023/05/22 13:17:23;;;;;;;0.60;0.60;;;;;;;;;;5012994;28;20188;-87
2023/05/22 13:19:50;;;;;;;0.50;0.50;;;;;;;;;;4998793;28;20287;-86
2023/05/22 13:22:16;;;;;;;0.60;0.60;;;;;;;;;;4996279;28;20307;-85
2023/05/22 13:24:42;;;;;;;0.50;0.50;;;;;;;;;;4996469;28;20181;-85
2023/05/22 13:27:08;;;;;;;0.50;0.50;;;;;;;;;;4996744;28;20194;-84
2023/05/22 13:29:34;;;;;;;0.60;0.60;;;;;;;;;;4995413;28;20208;-89
2023/05/22 13:32:00;;;;;;;0.50;0.50;;;;;;;;;;4996109;28;20264;-85
2023/05/22 13:34:26;;;;;;;0.50;0.50;;;;;;;;;;4995545;28;20188;-86
2023/05/22 13:36:52;;;;;;;0.70;0.70;;;;;;;;;;5030486;22;20253;-85
2023/05/22 13:39:18;;;;;;;0.50;0.50;;;;;;;;;;5019600;28;20283;-88
2023/05/22 13:41:45;;;;;;;0.60;0.60;;;;;;;;;;5019400;28;20227;-85
2023/05/22 13:44:11;;;;;;;0.60;0.60;;;;;;;;;;5030567;28;20167;-86
2023/05/22 13:46:37;;;;;;;0.50;0.50;;;;;;;;;;5032016;28;20175;-86
2023/05/22 13:49:03;;;;;;;0.50;0.50;;;;;;;;;;5023067;28;20172;-86
2023/05/22 13:51:29;;;;;;;0.60;0.60;;;;;;;;;;5016072;28;20192;-84
2023/05/22 13:53:55;;;;;;;0.60;0.60;;;;;;;;;;5016475;28;20256;-86
2023/05/22 13:56:22;;;;;;;0.50;0.50;;;;;;;;;;5000076;28;20195;-85
2023/05/22 13:58:48;;;;;;;0.40;0.40;;;;;;;;;;5018093;28;20180;-85
2023/05/22 14:01:14;;;;;;;0.50;0.50;;;;;;;;;;5016345;28;20244;-85
2023/05/22 14:03:40;;;;;;;0.50;0.50;;;;;;;;;;5016141;28;20184;-85
2023/05/22 14:06:06;;;;;;;0.40;0.40;;;;;;;;;;5016572;28;20195;-85
2023/05/22 14:08:32;;;;;;;0.40;0.40;;;;;;;;;;5015079;28;20261;-85
2023/05/22 14:10:58;;;;;;;0.30;0.30;;;;;;;;;;5014188;28;20661;-86
2023/05/22 14:13:24;;;;;;;0.33;0.33;;;;;;;;;;5014797;28;20195;-86
2023/05/22 14:15:50;;;;;;;0.40;0.40;;;;;;;;;;5014180;28;20180;-85
2023/05/22 14:18:16;;;;;;;0.30;0.30;;;;;;;;;;5015147;28;20553;-84
2023/05/22 14:20:42;;;;;;;0.40;0.40;;;;;;;;;;5014611;28;20212;-85
2023/05/22 14:23:08;;;;;;;0.40;0.40;;;;;;;;;;5024257;28;20172;-85
2023/05/22 14:25:34;;;;;;;0.40;0.40;;;;;;;;;;5038351;28;20179;-86
2023/05/22 14:28:00;;;;;;;0.40;0.40;;;;;;;;;;5038126;28;20172;-85
2023/05/22 14:30:26;;;;;;;0.37;0.37;;;;;;;;;;5015419;28;20235;-85
2023/05/22 14:32:52;;;;;;;0.50;0.50;;;;;;;;;;5014925;28;20181;-85
2023/05/22 14:35:18;;;;;;;0.40;0.40;;;;;;;;;;5014790;28;20191;-85
2023/05/22 14:37:45;;;;;;;0.40;0.40;;;;;;;;;;5014718;28;20192;-85
2023/05/22 14:40:11;;;;;;;0.47;0.47;;;;;;;;;;5016605;28;20192;-86
2023/05/22 14:42:37;;;;;;;0.40;0.40;;;;;;;;;;5014309;28;20173;-86